Cayuga, Indiana
Current Conditions -  °F | °C
As of 5:15 AM on Friday 31 Oct 2014 (Local Time) from KDNV Reporting Station
Overcast Overcast  
Wind Chill:   Ceiling: 5500
Heat Index:   Visibility: 7mi
Dew Point:   Wind: 6mph
Humidity: 87%   Direction: 290°WNW
Pressure: 30"   Gusts: NA
Location:  39.95°N, 87.46°W
Report Text: KDNV 310915Z AUTO 29005KT 7SM OVC055 06/04 A3000 RMK AO2 T00620042
Loading
Personal Weather Stations






























Interactive Weather Map
Tropical Storm Tracking
New forecast layout! Learn more

10-Day Weather Forecast

Advertisements
Track Severe Weather on mobile